Time;durP1;ratioP1;P1;durP2;ratioP2;P2;SDS_P1;SDS_P2;PMS_P1;PMS_P2;Temp;Humidity;BMP_temperature;BMP_pressure;BME280_temperature;BME280_humidity;BME280_pressure;Samples;Min_cycle;Max_cycle;Signal;HPM_P1;HPM_P2
2023/06/25 00:01:38;;;;;;;3.05;2.05;;;;;;;27.53;43.56;102162.28;5042975;28;20056;-32
2023/06/25 00:04:04;;;;;;;2.28;1.80;;;;;;;27.52;43.84;102157.88;5043953;28;20424;-33
2023/06/25 00:06:31;;;;;;;2.90;2.60;;;;;;;27.52;43.64;102159.75;5042366;28;20106;-32
2023/06/25 00:08:58;;;;;;;2.25;1.83;;;;;;;27.49;43.66;102155.50;5042567;28;20049;-31
2023/06/25 00:11:24;;;;;;;2.58;2.15;;;;;;;27.49;44.19;102157.38;5044461;28;20053;-30
2023/06/25 00:13:51;;;;;;;2.75;2.00;;;;;;;27.48;44.07;102151.09;5042712;28;20137;-30
2023/06/25 00:16:18;;;;;;;2.20;2.00;;;;;;;27.47;44.18;102154.00;5044267;28;20045;-31
2023/06/25 00:18:47;;;;;;;2.50;1.98;;;;;;;27.46;44.03;102158.63;5043777;28;20049;-30
2023/06/25 00:21:13;;;;;;;3.85;2.00;;;;;;;27.45;43.73;102150.63;5043136;28;20060;-30
2023/06/25 00:23:40;;;;;;;2.63;1.85;;;;;;;27.43;44.25;102149.97;5044667;28;20050;-31
2023/06/25 00:26:07;;;;;;;2.03;1.83;;;;;;;27.42;43.81;102143.69;5046139;28;20370;-30
2023/06/25 00:28:33;;;;;;;2.35;1.80;;;;;;;27.40;43.70;102137.56;5043308;28;20106;-30
2023/06/25 00:31:00;;;;;;;2.20;1.92;;;;;;;27.40;43.79;102134.00;5043170;28;20049;-31
2023/06/25 00:33:26;;;;;;;1.83;1.67;;;;;;;27.39;44.17;102135.88;5037852;28;20136;-31
2023/06/25 00:36:00;;;;;;;2.45;2.10;;;;;;;27.37;44.26;102129.75;5042151;28;20050;-31
2023/06/25 00:38:26;;;;;;;2.92;2.40;;;;;;;27.37;44.12;102124.31;5034010;28;20108;-30
2023/06/25 00:40:53;;;;;;;2.55;2.10;;;;;;;27.36;43.90;102124.50;5034456;28;20049;-30
2023/06/25 00:43:20;;;;;;;2.30;2.00;;;;;;;27.36;43.96;102122.63;5039064;28;20060;-31
2023/06/25 00:45:48;;;;;;;2.13;1.90;;;;;;;27.35;44.05;102115.50;5040493;28;20125;-32
2023/06/25 00:48:14;;;;;;;2.63;2.20;;;;;;;27.35;43.83;102115.50;5035747;28;20143;-32
2023/06/25 00:50:41;;;;;;;3.03;2.08;;;;;;;27.34;44.17;102116.53;5039085;28;20118;-32
2023/06/25 00:53:09;;;;;;;2.55;2.30;;;;;;;27.33;44.00;102117.53;5036700;28;20081;-33
2023/06/25 00:55:36;;;;;;;2.53;2.03;;;;;;;27.33;44.37;102109.38;5034933;28;20131;-32
2023/06/25 00:58:04;;;;;;;2.42;1.95;;;;;;;27.31;44.45;102111.44;5033612;28;20081;-32
2023/06/25 01:00:33;;;;;;;3.05;1.98;;;;;;;27.31;44.34;102111.44;5042225;28;20080;-32
2023/06/25 01:03:16;;;;;;;2.10;1.90;;;;;;;27.30;44.29;102105.16;5033003;28;20064;-32
2023/06/25 01:05:54;;;;;;;2.63;2.00;;;;;;;27.29;44.03;102106.16;5040266;28;20456;-32
2023/06/25 01:08:38;;;;;;;2.95;2.38;;;;;;;27.29;44.30;102103.44;5042869;28;20045;-32
2023/06/25 01:11:05;;;;;;;2.80;2.13;;;;;;;27.28;44.20;102096.31;5040484;28;20455;-32
2023/06/25 01:13:32;;;;;;;2.20;1.92;;;;;;;27.28;44.25;102100.91;5039209;28;20072;-33
2023/06/25 01:15:59;;;;;;;2.15;1.85;;;;;;;27.28;44.21;102100.91;5041184;28;20045;-32
2023/06/25 01:18:25;;;;;;;2.95;2.10;;;;;;;27.27;44.09;102088.34;5039986;28;20381;-34
2023/06/25 01:20:56;;;;;;;2.38;2.08;;;;;;;27.26;44.41;102087.50;5040503;28;20440;-32
2023/06/25 01:23:24;;;;;;;2.10;1.90;;;;;;;27.27;44.18;102096.50;5042242;28;20128;-32
2023/06/25 01:25:51;;;;;;;2.75;2.30;;;;;;;27.25;44.15;102083.06;5071732;28;20183;-33
2023/06/25 01:28:21;;;;;;;2.00;1.80;;;;;;;27.25;44.39;102083.06;5041118;28;20117;-33
2023/06/25 01:30:48;;;;;;;3.70;2.38;;;;;;;27.24;44.38;102075.94;5043112;28;20053;-31
2023/06/25 01:33:15;;;;;;;2.35;1.90;;;;;;;27.25;44.00;102079.50;5041861;28;20048;-32
2023/06/25 01:35:42;;;;;;;3.13;2.33;;;;;;;27.24;44.17;102066.94;5041743;28;20041;-32
2023/06/25 01:38:09;;;;;;;3.97;2.03;;;;;;;27.24;44.62;102069.66;5041995;28;20484;-30
2023/06/25 01:40:36;;;;;;;1.83;1.65;;;;;;;27.22;44.16;102069.84;5042469;28;20080;-32
2023/06/25 01:43:03;;;;;;;2.85;2.08;;;;;;;27.21;44.22;102072.72;5042715;28;20092;-32
2023/06/25 01:45:29;;;;;;;2.20;1.98;;;;;;;27.21;44.21;102064.56;5042333;28;20103;-33
2023/06/25 01:47:58;;;;;;;2.50;2.10;;;;;;;27.21;44.62;102056.41;5041861;28;20081;-33
2023/06/25 01:50:24;;;;;;;2.33;2.13;;;;;;;27.20;44.60;102058.28;5040917;28;20349;-31
2023/06/25 01:52:52;;;;;;;2.10;1.77;;;;;;;27.19;44.28;102053.03;5045080;28;20140;-31
2023/06/25 01:55:18;;;;;;;2.72;2.10;;;;;;;27.17;44.57;102050.47;5042662;28;20049;-30
2023/06/25 01:57:45;;;;;;;5.75;2.60;;;;;;;27.17;44.22;102042.31;5038840;28;20095;-30
2023/06/25 02:00:12;;;;;;;2.45;1.75;;;;;;;27.18;44.54;102043.19;5040674;28;20120;-30
2023/06/25 02:02:39;;;;;;;2.42;1.85;;;;;;;27.17;44.43;102044.19;5037407;28;20140;-31
2023/06/25 02:05:06;;;;;;;2.40;1.90;;;;;;;27.16;44.35;102043.34;5038892;28;20049;-30
2023/06/25 02:07:32;;;;;;;2.13;1.90;;;;;;;27.15;44.11;102036.22;5036192;28;20057;-32
2023/06/25 02:09:59;;;;;;;2.13;1.80;;;;;;;27.15;44.36;102028.06;5036265;28;20053;-33
2023/06/25 02:12:25;;;;;;;2.53;2.33;;;;;;;27.13;44.35;102024.66;5038879;28;20456;-32
2023/06/25 02:14:52;;;;;;;3.35;2.55;;;;;;;27.14;44.52;102026.38;5040275;28;20045;-30
2023/06/25 02:17:18;;;;;;;2.72;2.30;;;;;;;27.13;44.53;102026.53;5035000;28;20401;-33
2023/06/25 02:19:45;;;;;;;4.88;2.10;;;;;;;27.12;44.60;102030.31;5037849;28;20053;-33
2023/06/25 02:22:12;;;;;;;2.25;1.98;;;;;;;27.11;44.59;102009.56;5033353;28;20437;-33
2023/06/25 02:24:38;;;;;;;2.80;2.33;;;;;;;27.11;44.05;102015.84;5038323;28;20053;-32
2023/06/25 02:27:05;;;;;;;2.67;2.33;;;;;;;27.11;44.12;102015.00;5035077;28;20111;-32
2023/06/25 02:29:32;;;;;;;2.30;1.90;;;;;;;27.08;44.29;102017.03;5048826;28;20053;-33
2023/06/25 02:31:59;;;;;;;2.83;2.13;;;;;;;27.09;44.40;102017.88;5050782;28;20061;-32
2023/06/25 02:34:25;;;;;;;2.92;2.15;;;;;;;27.07;44.51;102017.22;5045695;28;20116;-32
2023/06/25 02:36:52;;;;;;;2.60;1.92;;;;;;;27.06;44.57;102016.38;5042894;28;20115;-32
2023/06/25 02:39:18;;;;;;;2.20;2.00;;;;;;;27.05;44.64;102014.66;5036271;28;20107;-32
2023/06/25 02:41:45;;;;;;;3.63;2.38;;;;;;;27.06;44.31;102010.94;5068276;28;20089;-33
2023/06/25 02:44:11;;;;;;;2.85;2.00;;;;;;;27.05;44.14;102011.94;5036232;28;20141;-30
2023/06/25 02:46:38;;;;;;;3.03;2.28;;;;;;;27.04;44.61;102009.41;5037852;28;20431;-31
2023/06/25 02:49:05;;;;;;;2.67;2.40;;;;;;;27.03;44.56;102013.19;5040124;28;20054;-30
2023/06/25 02:51:31;;;;;;;2.80;2.15;;;;;;;27.02;44.41;102015.06;5035894;28;20063;-31
2023/06/25 02:53:58;;;;;;;2.88;2.42;;;;;;;27.02;44.73;102015.06;5039845;28;20132;-31
2023/06/25 02:56:24;;;;;;;3.53;1.92;;;;;;;27.02;44.77;102008.78;5036098;28;20045;-31
2023/06/25 02:58:51;;;;;;;2.55;2.35;;;;;;;27.01;44.49;102010.63;5035038;28;20080;-30
2023/06/25 03:01:18;;;;;;;2.20;2.00;;;;;;;27.02;44.33;102003.34;5039980;28;20440;-30
2023/06/25 03:03:44;;;;;;;2.85;2.20;;;;;;;27.00;44.83;102002.66;5038894;28;20053;-30
2023/06/25 03:06:11;;;;;;;2.40;1.92;;;;;;;27.00;44.17;101998.06;5038374;28;20156;-30
2023/06/25 03:08:37;;;;;;;2.42;1.95;;;;;;;26.99;44.52;101988.22;5037798;28;20045;-30
2023/06/25 03:11:04;;;;;;;2.47;2.10;;;;;;;26.99;44.60;101990.09;5037263;28;20139;-30
2023/06/25 03:13:30;;;;;;;2.53;2.17;;;;;;;26.98;44.48;101989.25;5035410;28;20053;-31
2023/06/25 03:15:57;;;;;;;3.25;2.55;;;;;;;26.98;44.52;101982.97;5039967;28;20041;-31
2023/06/25 03:18:24;;;;;;;2.28;2.00;;;;;;;26.97;44.55;101986.69;5046579;28;20437;-31
2023/06/25 03:20:50;;;;;;;2.63;2.33;;;;;;;26.96;44.68;101985.84;5039192;28;20058;-31
2023/06/25 03:23:17;;;;;;;2.92;2.30;;;;;;;26.96;44.49;101982.28;5040530;28;20085;-30
2023/06/25 03:25:43;;;;;;;3.08;2.17;;;;;;;26.96;44.41;101985.00;5035680;28;20048;-31
2023/06/25 03:28:10;;;;;;;2.75;2.40;;;;;;;26.95;44.68;101981.44;5031185;28;20088;-31
2023/06/25 03:30:36;;;;;;;2.38;2.17;;;;;;;26.94;44.56;101977.06;5032473;28;20114;-31
2023/06/25 03:33:04;;;;;;;2.20;2.00;;;;;;;26.94;44.68;101977.06;5037996;28;20046;-31
2023/06/25 03:35:30;;;;;;;3.05;2.30;;;;;;;26.94;44.77;101979.78;5038543;28;20341;-31
2023/06/25 03:37:57;;;;;;;2.35;2.15;;;;;;;26.93;45.00;101983.50;5035414;28;20062;-30
2023/06/25 03:40:24;;;;;;;2.30;2.10;;;;;;;26.93;44.44;101985.38;5037304;28;20345;-31
2023/06/25 03:42:50;;;;;;;2.85;2.17;;;;;;;26.92;44.57;101973.66;5039859;28;20080;-30
2023/06/25 03:45:17;;;;;;;2.80;1.83;;;;;;;26.92;44.48;101979.09;5039078;28;20429;-31
2023/06/25 03:47:43;;;;;;;3.58;2.35;;;;;;;26.93;44.66;101977.22;5037830;28;20057;-30
2023/06/25 03:50:10;;;;;;;3.75;2.47;;;;;;;26.92;44.66;101981.81;5041433;28;20049;-30
2023/06/25 03:52:37;;;;;;;2.97;2.38;;;;;;;26.91;44.73;101977.41;5039572;28;20053;-30
2023/06/25 03:55:04;;;;;;;3.00;2.20;;;;;;;26.91;44.53;101977.41;5048605;28;20071;-30
2023/06/25 03:57:30;;;;;;;2.50;2.30;;;;;;;26.91;44.71;101974.69;5047744;28;20053;-30
2023/06/25 03:59:57;;;;;;;3.13;2.00;;;;;;;26.92;44.66;101983.69;5048022;28;20056;-32
2023/06/25 04:02:24;;;;;;;3.47;2.20;;;;;;;26.91;44.60;101977.41;5050065;28;20084;-31
2023/06/25 04:04:50;;;;;;;2.92;2.35;;;;;;;26.92;44.50;101975.53;5049014;28;20380;-31
2023/06/25 04:07:17;;;;;;;2.90;2.40;;;;;;;26.91;44.62;101974.69;5049247;28;20131;-31
2023/06/25 04:09:44;;;;;;;2.95;2.47;;;;;;;26.91;44.67;101976.56;5049828;28;20122;-30
2023/06/25 04:12:10;;;;;;;2.42;2.17;;;;;;;26.92;44.94;101979.09;5043828;28;20128;-31
2023/06/25 04:14:37;;;;;;;3.22;2.20;;;;;;;26.91;44.58;101976.56;5045326;28;20107;-30
2023/06/25 04:17:04;;;;;;;2.65;1.98;;;;;;;26.91;44.41;101971.13;5048739;28;20134;-31
2023/06/25 04:19:31;;;;;;;2.80;2.50;;;;;;;26.91;44.31;101971.97;5047857;28;20053;-31
2023/06/25 04:21:57;;;;;;;3.08;2.28;;;;;;;26.91;44.83;101977.41;5045881;28;20061;-31
2023/06/25 04:24:24;;;;;;;2.95;2.40;;;;;;;26.92;44.96;101967.38;5046414;28;20057;-31
2023/06/25 04:26:50;;;;;;;2.80;2.50;;;;;;;26.92;44.85;101979.09;5045668;28;20042;-30
2023/06/25 04:29:17;;;;;;;2.75;2.35;;;;;;;26.93;44.71;101978.06;5041179;28;20057;-31
2023/06/25 04:31:44;;;;;;;3.47;2.47;;;;;;;26.92;44.61;101979.09;5043901;28;20137;-31
2023/06/25 04:34:10;;;;;;;2.90;2.15;;;;;;;26.93;44.60;101969.06;5045735;28;20140;-31
2023/06/25 04:36:37;;;;;;;3.13;2.65;;;;;;;26.92;44.53;101968.22;5042060;28;20053;-30
2023/06/25 04:39:03;;;;;;;3.90;2.58;;;;;;;26.94;44.41;101968.88;5034061;28;20496;-31
2023/06/25 04:41:30;;;;;;;3.05;2.22;;;;;;;26.95;44.38;101969.72;5038669;28;20342;-30
2023/06/25 04:43:57;;;;;;;2.70;2.40;;;;;;;26.95;44.77;101965.13;5035973;28;20053;-30
2023/06/25 04:46:23;;;;;;;2.72;2.25;;;;;;;26.95;44.38;101967.00;5036203;28;20041;-30
2023/06/25 04:48:51;;;;;;;2.58;2.17;;;;;;;26.96;44.70;101965.97;5038218;28;20080;-30
2023/06/25 04:51:17;;;;;;;3.20;2.20;;;;;;;26.98;44.51;101966.66;5039774;28;20103;-30
2023/06/25 04:53:44;;;;;;;2.53;2.20;;;;;;;26.98;44.18;101961.19;5039325;28;20314;-31
2023/06/25 04:56:10;;;;;;;3.42;2.55;;;;;;;27.00;44.52;101959.13;5038667;28;20413;-30
2023/06/25 04:58:37;;;;;;;3.33;2.35;;;;;;;27.01;44.62;101967.09;5037267;28;20136;-30
2023/06/25 05:01:04;;;;;;;2.80;2.33;;;;;;;27.03;44.37;101962.31;5047048;28;20119;-30
2023/06/25 05:03:30;;;;;;;2.85;2.30;;;;;;;27.05;44.29;101960.25;5038265;28;20056;-30
2023/06/25 05:05:57;;;;;;;3.55;2.40;;;;;;;27.06;44.46;101964.69;5038410;28;20058;-31
2023/06/25 05:08:24;;;;;;;2.53;2.30;;;;;;;27.08;44.38;101967.19;5038847;28;20310;-30
2023/06/25 05:10:51;;;;;;;3.45;2.50;;;;;;;27.10;44.26;101965.19;5034343;28;20135;-31
2023/06/25 05:13:18;;;;;;;2.35;2.00;;;;;;;27.11;44.18;101961.41;5034695;28;20053;-30
2023/06/25 05:15:44;;;;;;;4.10;2.70;;;;;;;27.13;44.55;101963.94;5033883;28;20104;-30
2023/06/25 05:18:11;;;;;;;2.88;2.30;;;;;;;27.15;44.41;101967.34;5042504;28;20084;-31
2023/06/25 05:20:38;;;;;;;3.17;2.42;;;;;;;27.16;44.59;101964.41;5041040;28;20144;-32
2023/06/25 05:23:06;;;;;;;2.47;2.20;;;;;;;27.19;44.38;101968.66;5041729;28;20448;-33
2023/06/25 05:25:34;;;;;;;2.72;2.45;;;;;;;27.21;44.30;101964.69;5041043;28;20437;-33
2023/06/25 05:28:03;;;;;;;3.05;2.40;;;;;;;27.23;43.93;101961.81;5041285;28;20415;-33
2023/06/25 05:30:31;;;;;;;4.28;2.72;;;;;;;27.25;43.84;101960.56;5041589;28;20371;-30
2023/06/25 05:33:01;;;;;;;3.08;2.60;;;;;;;27.28;44.24;101953.91;5043118;28;20441;-33
2023/06/25 05:35:28;;;;;;;2.53;2.20;;;;;;;27.30;44.17;101960.03;5043150;28;20341;-32
2023/06/25 05:37:58;;;;;;;2.83;2.53;;;;;;;27.32;44.47;101963.38;5042285;28;20055;-31
2023/06/25 05:40:27;;;;;;;3.05;2.50;;;;;;;27.34;44.24;101955.00;5043141;28;20088;-30
2023/06/25 05:42:54;;;;;;;2.78;2.50;;;;;;;27.36;43.89;101958.41;5043986;28;20409;-30
2023/06/25 05:45:22;;;;;;;2.58;2.20;;;;;;;27.38;44.24;101956.31;5041099;28;20042;-30
2023/06/25 05:47:48;;;;;;;2.88;2.45;;;;;;;27.38;44.15;101959.91;5043507;28;20053;-31
2023/06/25 05:50:15;;;;;;;2.38;2.17;;;;;;;27.39;44.04;101964.31;5044714;28;20408;-30
2023/06/25 05:52:43;;;;;;;2.67;2.30;;;;;;;27.41;43.70;101964.97;5044497;28;20756;-33
2023/06/25 05:55:11;;;;;;;3.00;2.50;;;;;;;27.44;43.38;101966.47;5043962;28;20382;-33
2023/06/25 05:57:39;;;;;;;2.47;2.10;;;;;;;27.44;43.45;101958.31;5046402;28;20118;-30
2023/06/25 06:00:06;;;;;;;2.65;2.40;;;;;;;27.45;44.07;101960.00;5041941;28;20148;-31
2023/06/25 06:02:33;;;;;;;2.40;2.20;;;;;;;27.47;43.61;101966.09;5041982;28;20057;-31
2023/06/25 06:04:59;;;;;;;2.80;2.50;;;;;;;27.48;43.32;101962.34;5041205;28;20044;-31
2023/06/25 06:07:26;;;;;;;2.95;2.38;;;;;;;27.48;43.52;101955.00;5040469;28;20056;-31
2023/06/25 06:09:53;;;;;;;2.42;2.13;;;;;;;27.49;43.72;101959.41;5039822;28;20494;-31
2023/06/25 06:12:19;;;;;;;3.90;2.78;;;;;;;27.48;43.92;101952.28;5037911;28;20056;-31
2023/06/25 06:14:46;;;;;;;3.60;2.53;;;;;;;27.49;43.79;101953.13;5032486;28;20054;-31
2023/06/25 06:17:13;;;;;;;3.08;2.25;;;;;;;27.51;43.66;101951.91;5038156;28;20073;-31
2023/06/25 06:19:39;;;;;;;3.60;2.75;;;;;;;27.51;43.14;101948.34;5037769;28;20076;-30
2023/06/25 06:22:06;;;;;;;6.32;3.17;;;;;;;27.51;43.75;101953.81;5040504;28;20445;-31
2023/06/25 06:24:33;;;;;;;3.78;2.90;;;;;;;27.52;43.54;101952.75;5035040;28;20441;-31
2023/06/25 06:26:59;;;;;;;3.65;2.83;;;;;;;27.52;43.20;101953.59;5040821;28;20441;-31
2023/06/25 06:29:26;;;;;;;3.90;2.75;;;;;;;27.53;43.05;101949.84;5035136;28;20049;-31
2023/06/25 06:31:52;;;;;;;4.55;2.90;;;;;;;27.53;43.45;101949.00;5040304;28;20322;-30
2023/06/25 06:34:19;;;;;;;4.93;3.00;;;;;;;27.55;43.25;101955.09;5042434;28;20095;-31
2023/06/25 06:36:46;;;;;;;3.05;2.40;;;;;;;27.54;43.58;101954.28;5037066;28;20049;-31
2023/06/25 06:39:14;;;;;;;5.10;2.55;;;;;;;27.55;43.04;101949.66;5031949;28;20053;-32
2023/06/25 06:41:41;;;;;;;3.58;2.72;;;;;;;27.55;43.51;101950.50;5032340;28;20417;-31
2023/06/25 06:44:15;;;;;;;3.30;2.53;;;;;;;27.55;43.26;101944.22;5038623;28;20423;-31
2023/06/25 06:46:43;;;;;;;2.70;2.50;;;;;;;27.57;43.43;101942.13;5037558;28;20045;-31
2023/06/25 06:49:10;;;;;;;3.85;2.70;;;;;;;27.57;43.18;101939.41;5036708;28;20068;-31
2023/06/25 06:51:38;;;;;;;3.20;2.58;;;;;;;27.58;43.06;101942.97;5035213;28;20487;-31
2023/06/25 06:54:05;;;;;;;3.22;2.63;;;;;;;27.57;43.03;101939.41;5042209;28;20053;-31
2023/06/25 06:56:32;;;;;;;4.60;2.85;;;;;;;27.58;43.32;101934.78;5038048;28;20049;-31
2023/06/25 06:58:59;;;;;;;3.35;2.83;;;;;;;27.58;43.20;101929.34;5035591;28;20490;-31
2023/06/25 07:01:26;;;;;;;4.15;2.58;;;;;;;27.59;42.76;101937.34;5041646;28;20056;-32
2023/06/25 07:03:52;;;;;;;3.83;2.88;;;;;;;27.59;43.29;101936.50;5037089;28;20061;-32
2023/06/25 07:06:20;;;;;;;3.67;2.45;;;;;;;27.59;42.88;101939.22;5036032;28;20049;-31
2023/06/25 07:08:47;;;;;;;2.83;2.47;;;;;;;27.59;43.07;101934.63;5039729;28;20103;-31
2023/06/25 07:11:16;;;;;;;3.78;2.50;;;;;;;27.60;43.32;101930.03;5036677;28;20053;-31
2023/06/25 07:13:43;;;;;;;3.85;2.55;;;;;;;27.61;43.09;101928.97;5037722;28;20065;-31
2023/06/25 07:16:10;;;;;;;2.70;2.25;;;;;;;27.61;43.07;101927.09;5041873;28;20083;-31
2023/06/25 07:18:37;;;;;;;3.88;2.80;;;;;;;27.60;42.80;101927.28;5041994;28;20049;-31
2023/06/25 07:21:05;;;;;;;2.92;2.55;;;;;;;27.61;42.85;101928.97;5042417;28;20068;-31
2023/06/25 07:23:33;;;;;;;3.58;2.55;;;;;;;27.61;42.76;101932.53;5044710;28;20429;-31
2023/06/25 07:26:00;;;;;;;4.43;2.72;;;;;;;27.61;42.66;101931.69;5043126;28;20077;-32
2023/06/25 07:28:26;;;;;;;3.25;2.70;;;;;;;27.61;42.38;101934.44;5042540;28;20191;-31
2023/06/25 07:30:53;;;;;;;2.88;2.55;;;;;;;27.61;42.59;101924.38;5046851;28;20339;-31
2023/06/25 07:33:19;;;;;;;4.05;2.90;;;;;;;27.62;42.72;101925.22;5043463;28;20138;-31
2023/06/25 07:35:46;;;;;;;3.55;2.88;;;;;;;27.62;42.71;101926.06;5043032;28;20041;-31
2023/06/25 07:38:13;;;;;;;4.18;2.95;;;;;;;27.64;42.36;101923.16;5043298;28;20107;-31
2023/06/25 07:40:39;;;;;;;5.43;3.55;;;;;;;27.63;42.44;101919.59;5041080;28;20360;-31
2023/06/25 07:43:06;;;;;;;4.45;2.80;;;;;;;27.63;42.10;101924.19;5041653;28;20053;-30
2023/06/25 07:45:32;;;;;;;5.22;3.05;;;;;;;27.64;42.14;101920.44;5040567;28;20141;-31
2023/06/25 07:47:59;;;;;;;3.60;2.72;;;;;;;27.64;41.67;101912.25;5042170;28;20049;-31
2023/06/25 07:50:26;;;;;;;4.72;3.10;;;;;;;27.64;42.46;101904.09;5040958;28;20055;-31
2023/06/25 07:52:52;;;;;;;4.68;3.47;;;;;;;27.64;42.50;101909.53;5040542;28;20414;-31
2023/06/25 07:55:19;;;;;;;4.32;2.97;;;;;;;27.63;42.37;101911.41;5041192;28;20140;-31
2023/06/25 07:57:45;;;;;;;4.93;3.47;;;;;;;27.66;42.63;101904.72;5038994;28;20045;-32
2023/06/25 08:00:12;;;;;;;5.72;3.45;;;;;;;27.66;42.53;101899.28;5036858;28;20142;-31
2023/06/25 08:02:39;;;;;;;4.47;3.00;;;;;;;27.66;41.73;101899.28;5040652;28;20353;-32
2023/06/25 08:05:06;;;;;;;4.88;3.10;;;;;;;27.66;42.01;101902.00;5035317;28;20132;-31
2023/06/25 08:07:32;;;;;;;4.18;3.17;;;;;;;27.67;42.16;101893.66;5037923;28;20491;-31
2023/06/25 08:10:00;;;;;;;3.92;2.80;;;;;;;27.67;42.08;101895.53;5045824;28;20056;-31
2023/06/25 08:12:27;;;;;;;4.38;3.30;;;;;;;27.68;41.96;101894.50;5044809;28;20073;-31
2023/06/25 08:14:53;;;;;;;4.05;2.78;;;;;;;27.68;41.53;101891.75;5050344;28;20100;-31
2023/06/25 08:17:20;;;;;;;4.38;2.70;;;;;;;27.69;41.98;101898.91;5048384;28;20045;-31
2023/06/25 08:19:46;;;;;;;4.40;2.88;;;;;;;27.69;42.06;101894.28;5044697;28;20122;-30
2023/06/25 08:22:13;;;;;;;4.03;2.90;;;;;;;27.69;41.83;101901.63;5050337;28;20056;-31
2023/06/25 08:24:39;;;;;;;5.55;3.13;;;;;;;27.69;41.71;101888.84;5050892;28;20143;-31
2023/06/25 08:27:06;;;;;;;3.53;2.30;;;;;;;27.71;42.01;101885.94;5040749;28;20046;-31
2023/06/25 08:29:33;;;;;;;4.00;2.78;;;;;;;27.71;42.12;101886.78;5048902;28;20140;-31
2023/06/25 08:31:59;;;;;;;6.28;3.05;;;;;;;27.71;42.22;101877.78;5048627;28;20049;-31
2023/06/25 08:34:26;;;;;;;4.45;2.90;;;;;;;27.71;41.61;101878.59;5039876;28;20053;-31
2023/06/25 08:36:53;;;;;;;4.13;2.90;;;;;;;27.72;42.57;101880.28;5034483;28;20514;-31
2023/06/25 08:39:20;;;;;;;4.35;2.78;;;;;;;27.73;42.30;101878.41;5036887;28;20130;-31
2023/06/25 08:41:49;;;;;;;4.15;2.58;;;;;;;27.73;41.92;101878.41;5037074;28;20437;-31
2023/06/25 08:44:16;;;;;;;4.03;2.58;;;;;;;27.74;41.63;101880.13;5037008;28;20064;-32
2023/06/25 08:46:49;;;;;;;4.03;2.83;;;;;;;27.73;41.89;101876.56;5037561;28;20087;-31
2023/06/25 08:49:18;;;;;;;3.70;2.53;;;;;;;27.75;42.17;101871.75;5041822;28;20323;-31
2023/06/25 08:51:44;;;;;;;2.90;2.42;;;;;;;27.76;42.37;101867.16;5039539;28;20132;-31
2023/06/25 08:54:11;;;;;;;4.18;2.72;;;;;;;27.76;42.46;101872.59;5042737;28;20372;-34
2023/06/25 08:56:39;;;;;;;4.25;2.22;;;;;;;27.77;42.09;101866.13;5039209;28;20065;-33
2023/06/25 08:59:06;;;;;;;3.83;2.78;;;;;;;27.77;42.16;101863.38;5039184;28;20417;-32
2023/06/25 09:01:32;;;;;;;2.92;2.58;;;;;;;27.77;42.15;101857.94;5038654;28;20441;-33
2023/06/25 09:03:59;;;;;;;3.88;2.88;;;;;;;27.77;42.42;101861.50;5036907;28;20107;-33
2023/06/25 09:06:26;;;;;;;3.42;2.65;;;;;;;27.78;42.19;101855.03;5040625;28;20667;-33
2023/06/25 09:08:53;;;;;;;3.05;2.47;;;;;;;27.79;41.95;101854.00;5040589;28;20132;-32
2023/06/25 09:11:19;;;;;;;3.83;2.83;;;;;;;27.80;42.38;101858.41;5038874;28;20045;-32
2023/06/25 09:13:46;;;;;;;3.65;2.80;;;;;;;27.82;42.41;101860.06;5043162;28;20057;-32
2023/06/25 09:16:13;;;;;;;2.90;2.35;;;;;;;27.82;41.76;101860.94;5036858;28;20373;-32
2023/06/25 09:18:39;;;;;;;5.55;2.78;;;;;;;27.85;42.66;101860.53;5035681;28;20157;-33
2023/06/25 09:21:08;;;;;;;3.30;2.42;;;;;;;27.86;42.57;101859.53;5036482;28;20102;-32
2023/06/25 09:23:38;;;;;;;3.53;2.50;;;;;;;27.87;42.35;101861.19;5038861;28;20383;-33
2023/06/25 09:26:07;;;;;;;3.38;2.60;;;;;;;27.89;41.82;101861.84;5035742;28;20370;-33
2023/06/25 09:28:59;;;;;;;3.22;2.60;;;;;;;27.91;42.60;101857.03;5034359;28;20053;-33
2023/06/25 09:31:26;;;;;;;4.78;2.40;;;;;;;27.95;42.22;101846.59;5033523;28;20629;-32
2023/06/25 09:33:53;;;;;;;3.40;2.55;;;;;;;27.97;42.00;101845.34;5038776;28;20045;-32
2023/06/25 09:36:20;;;;;;;2.70;2.30;;;;;;;28.01;42.54;101845.81;5047209;28;20049;-32
2023/06/25 09:39:05;;;;;;;3.85;2.30;;;;;;;28.04;42.42;101839.97;5045322;28;20053;-33
2023/06/25 09:41:37;;;;;;;3.25;2.53;;;;;;;28.07;42.40;101845.03;5041736;28;20244;-32
2023/06/25 09:44:05;;;;;;;3.35;2.22;;;;;;;28.10;41.96;101841.91;5040213;28;20092;-33
2023/06/25 09:46:36;;;;;;;5.03;1.98;;;;;;;28.14;42.12;101840.50;5044509;28;20049;-33
2023/06/25 09:49:04;;;;;;;2.75;2.35;;;;;;;28.17;42.22;101834.63;5044763;28;20080;-33
2023/06/25 09:51:42;;;;;;;3.85;2.42;;;;;;;28.20;41.51;101839.69;5039401;28;20333;-32
2023/06/25 09:54:11;;;;;;;2.97;2.20;;;;;;;28.25;41.83;101839.91;5046382;28;20052;-33
2023/06/25 09:56:41;;;;;;;2.97;2.33;;;;;;;28.26;42.23;101836.19;5044925;28;20409;-33
2023/06/25 09:59:08;;;;;;;3.05;2.33;;;;;;;28.29;42.05;101837.66;5045992;28;20437;-33
2023/06/25 10:01:36;;;;;;;3.88;2.70;;;;;;;28.33;42.18;101836.22;5047443;28;20080;-33
2023/06/25 10:04:03;;;;;;;2.65;2.30;;;;;;;28.34;41.73;101835.16;5041373;28;20049;-33
2023/06/25 10:06:32;;;;;;;2.50;2.20;;;;;;;28.36;42.25;101835.84;5041271;28;20049;-33
2023/06/25 10:08:58;;;;;;;2.83;2.13;;;;;;;28.39;42.09;101832.75;5043987;28;20125;-32
2023/06/25 10:11:25;;;;;;;3.55;2.60;;;;;;;28.43;42.27;101836.75;5031986;28;20130;-32
2023/06/25 10:13:52;;;;;;;2.80;2.40;;;;;;;28.44;41.74;101838.44;5040633;28;20049;-33
2023/06/25 10:16:19;;;;;;;3.20;2.00;;;;;;;28.48;41.86;101825.25;5040665;28;20186;-32
2023/06/25 10:19:04;;;;;;;3.33;2.30;;;;;;;28.50;41.86;101821.28;5038005;28;20381;-33
2023/06/25 10:21:31;;;;;;;3.45;2.60;;;;;;;28.53;41.43;101817.28;5042347;28;20057;-32
2023/06/25 10:24:00;;;;;;;3.58;2.47;;;;;;;28.55;41.92;101812.50;5041397;28;20405;-32
2023/06/25 10:26:34;;;;;;;3.47;2.45;;;;;;;28.57;42.02;101815.84;5039663;28;20456;-32
2023/06/25 10:29:05;;;;;;;2.28;2.00;;;;;;;28.59;41.19;101808.31;5038856;28;20439;-32
2023/06/25 10:31:41;;;;;;;2.70;2.22;;;;;;;28.61;42.01;101811.66;5036287;28;20495;-33
2023/06/25 10:34:10;;;;;;;3.17;2.30;;;;;;;28.64;42.12;101811.28;5039010;28;20132;-32
2023/06/25 10:36:47;;;;;;;3.13;2.50;;;;;;;28.66;41.25;101809.19;5032590;28;20341;-32
2023/06/25 10:39:13;;;;;;;2.28;2.05;;;;;;;28.68;41.33;101798.91;5036719;28;20045;-32
2023/06/25 10:41:45;;;;;;;2.67;2.25;;;;;;;28.69;41.92;101792.41;5031967;28;20497;-32
2023/06/25 10:44:12;;;;;;;3.72;2.60;;;;;;;28.72;41.72;101789.28;5039036;28;20100;-32
2023/06/25 10:46:39;;;;;;;2.42;1.80;;;;;;;28.74;41.69;101789.94;5032127;28;20498;-33
2023/06/25 10:49:05;;;;;;;3.17;2.05;;;;;;;28.77;41.15;101788.69;5036049;28;20056;-32
2023/06/25 10:51:33;;;;;;;3.72;2.40;;;;;;;28.78;40.98;101784.88;5035860;28;20053;-32
2023/06/25 10:53:59;;;;;;;3.55;1.92;;;;;;;28.81;41.53;101780.94;5038222;28;20042;-32
2023/06/25 10:56:26;;;;;;;2.75;2.10;;;;;;;28.82;40.95;101777.97;5035466;28;20060;-33
2023/06/25 10:58:57;;;;;;;3.30;2.50;;;;;;;28.84;41.90;101762.25;5039574;28;20053;-32
2023/06/25 11:01:25;;;;;;;2.83;2.15;;;;;;;28.85;41.54;101765.84;5045810;28;20128;-33
2023/06/25 11:03:51;;;;;;;2.83;2.15;;;;;;;28.87;41.67;101775.50;5045404;28;20106;-32
2023/06/25 11:06:18;;;;;;;3.15;2.30;;;;;;;28.89;41.74;101767.94;5039847;28;20390;-32
2023/06/25 11:08:47;;;;;;;2.45;1.85;;;;;;;28.92;40.98;101758.53;5043903;28;20053;-33
2023/06/25 11:11:14;;;;;;;2.55;2.15;;;;;;;28.93;41.61;101760.19;5039789;28;20053;-32
2023/06/25 11:13:41;;;;;;;3.13;2.60;;;;;;;28.94;41.63;101765.44;5041617;28;20125;-32
2023/06/25 11:16:08;;;;;;;2.72;2.22;;;;;;;28.96;41.36;101763.34;5041456;28;20084;-32
2023/06/25 11:18:36;;;;;;;3.08;2.40;;;;;;;28.97;41.34;101758.78;5041584;28;20037;-33
2023/06/25 11:21:05;;;;;;;2.42;1.90;;;;;;;28.99;41.04;101757.53;5044794;28;20065;-33
2023/06/25 11:23:31;;;;;;;3.33;2.15;;;;;;;29.01;41.39;101763.59;5042638;28;20084;-32
2023/06/25 11:26:02;;;;;;;2.85;2.30;;;;;;;29.04;40.81;101750.63;5044626;28;20081;-32